sensor_id;sensor_type;location;lat;lon;timestamp;P1;durP1;ratioP1;P2;durP2;ratioP2
54937;SDS011;52756;52.826;6.214;2024-02-16T00:00:08;5.85;;;3.20;;
54937;SDS011;52756;52.826;6.214;2024-02-16T00:02:38;5.03;;;2.60;;
54937;SDS011;52756;52.826;6.214;2024-02-16T00:05:04;5.63;;;2.72;;
54937;SDS011;52756;52.826;6.214;2024-02-16T00:07:32;9.00;;;3.00;;
54937;SDS011;52756;52.826;6.214;2024-02-16T00:09:58;6.75;;;3.10;;
54937;SDS011;52756;52.826;6.214;2024-02-16T00:12:24;6.45;;;2.58;;
54937;SDS011;52756;52.826;6.214;2024-02-16T00:14:49;6.45;;;3.22;;
54937;SDS011;52756;52.826;6.214;2024-02-16T00:17:15;6.10;;;3.20;;
54937;SDS011;52756;52.826;6.214;2024-02-16T00:19:40;8.95;;;3.00;;
54937;SDS011;52756;52.826;6.214;2024-02-16T00:22:06;5.60;;;2.60;;
54937;SDS011;52756;52.826;6.214;2024-02-16T00:24:35;4.78;;;2.70;;
54937;SDS011;52756;52.826;6.214;2024-02-16T00:27:01;4.97;;;2.80;;
54937;SDS011;52756;52.826;6.214;2024-02-16T00:29:30;4.45;;;2.65;;
54937;SDS011;52756;52.826;6.214;2024-02-16T00:31:56;7.53;;;3.20;;
54937;SDS011;52756;52.826;6.214;2024-02-16T00:34:24;4.80;;;2.78;;
54937;SDS011;52756;52.826;6.214;2024-02-16T00:36:50;5.10;;;3.25;;
54937;SDS011;52756;52.826;6.214;2024-02-16T00:39:16;6.13;;;2.78;;
54937;SDS011;52756;52.826;6.214;2024-02-16T00:41:41;5.53;;;2.80;;
54937;SDS011;52756;52.826;6.214;2024-02-16T00:44:07;5.20;;;2.33;;
54937;SDS011;52756;52.826;6.214;2024-02-16T00:46:32;6.15;;;2.65;;
54937;SDS011;52756;52.826;6.214;2024-02-16T00:49:01;6.65;;;3.03;;
54937;SDS011;52756;52.826;6.214;2024-02-16T00:51:27;5.15;;;2.33;;
54937;SDS011;52756;52.826;6.214;2024-02-16T00:53:52;5.07;;;2.42;;
54937;SDS011;52756;52.826;6.214;2024-02-16T00:56:18;9.52;;;3.47;;
54937;SDS011;52756;52.826;6.214;2024-02-16T00:58:43;6.00;;;2.78;;
54937;SDS011;52756;52.826;6.214;2024-02-16T01:01:09;5.30;;;2.30;;
54937;SDS011;52756;52.826;6.214;2024-02-16T01:03:37;5.25;;;2.55;;
54937;SDS011;52756;52.826;6.214;2024-02-16T01:06:03;9.18;;;2.83;;
54937;SDS011;52756;52.826;6.214;2024-02-16T01:08:30;5.97;;;2.58;;
54937;SDS011;52756;52.826;6.214;2024-02-16T01:10:56;7.13;;;2.60;;
54937;SDS011;52756;52.826;6.214;2024-02-16T01:13:22;6.45;;;2.75;;
54937;SDS011;52756;52.826;6.214;2024-02-16T01:15:47;4.75;;;2.80;;
54937;SDS011;52756;52.826;6.214;2024-02-16T01:18:13;8.23;;;2.95;;
54937;SDS011;52756;52.826;6.214;2024-02-16T01:20:38;6.03;;;2.88;;
54937;SDS011;52756;52.826;6.214;2024-02-16T01:23:04;6.40;;;3.05;;
54937;SDS011;52756;52.826;6.214;2024-02-16T01:25:30;6.18;;;2.97;;
54937;SDS011;52756;52.826;6.214;2024-02-16T01:27:57;6.30;;;3.53;;
54937;SDS011;52756;52.826;6.214;2024-02-16T01:30:23;7.35;;;3.30;;
54937;SDS011;52756;52.826;6.214;2024-02-16T01:32:48;5.00;;;3.30;;
54937;SDS011;52756;52.826;6.214;2024-02-16T01:35:14;6.60;;;3.00;;
54937;SDS011;52756;52.826;6.214;2024-02-16T01:37:40;6.00;;;3.00;;
54937;SDS011;52756;52.826;6.214;2024-02-16T01:40:07;5.38;;;2.50;;
54937;SDS011;52756;52.826;6.214;2024-02-16T01:42:38;5.93;;;3.28;;
54937;SDS011;52756;52.826;6.214;2024-02-16T01:45:05;6.65;;;3.00;;
54937;SDS011;52756;52.826;6.214;2024-02-16T01:47:31;9.18;;;3.03;;
54937;SDS011;52756;52.826;6.214;2024-02-16T01:49:57;6.82;;;3.05;;
54937;SDS011;52756;52.826;6.214;2024-02-16T01:52:23;6.75;;;3.03;;
54937;SDS011;52756;52.826;6.214;2024-02-16T01:54:49;5.68;;;2.90;;
54937;SDS011;52756;52.826;6.214;2024-02-16T01:57:15;7.50;;;3.03;;
54937;SDS011;52756;52.826;6.214;2024-02-16T01:59:40;6.63;;;3.10;;
54937;SDS011;52756;52.826;6.214;2024-02-16T02:02:06;5.53;;;2.90;;
54937;SDS011;52756;52.826;6.214;2024-02-16T02:04:32;5.78;;;2.40;;
54937;SDS011;52756;52.826;6.214;2024-02-16T02:06:59;7.40;;;3.10;;
54937;SDS011;52756;52.826;6.214;2024-02-16T02:09:24;7.38;;;3.08;;
54937;SDS011;52756;52.826;6.214;2024-02-16T02:11:50;5.13;;;2.75;;
54937;SDS011;52756;52.826;6.214;2024-02-16T02:14:17;5.72;;;2.58;;
54937;SDS011;52756;52.826;6.214;2024-02-16T02:16:42;6.63;;;2.90;;
54937;SDS011;52756;52.826;6.214;2024-02-16T02:19:08;5.72;;;2.63;;
54937;SDS011;52756;52.826;6.214;2024-02-16T02:21:33;5.15;;;2.75;;
54937;SDS011;52756;52.826;6.214;2024-02-16T02:23:59;6.20;;;2.90;;
54937;SDS011;52756;52.826;6.214;2024-02-16T02:26:25;6.03;;;2.65;;
54937;SDS011;52756;52.826;6.214;2024-02-16T02:28:51;6.85;;;3.20;;
54937;SDS011;52756;52.826;6.214;2024-02-16T02:31:16;5.38;;;2.50;;
54937;SDS011;52756;52.826;6.214;2024-02-16T02:33:42;6.13;;;2.97;;
54937;SDS011;52756;52.826;6.214;2024-02-16T02:36:07;5.47;;;2.60;;
54937;SDS011;52756;52.826;6.214;2024-02-16T02:38:33;5.10;;;2.92;;
54937;SDS011;52756;52.826;6.214;2024-02-16T02:40:59;5.60;;;2.47;;
54937;SDS011;52756;52.826;6.214;2024-02-16T02:43:24;5.93;;;3.30;;
54937;SDS011;52756;52.826;6.214;2024-02-16T02:45:50;4.50;;;2.45;;
54937;SDS011;52756;52.826;6.214;2024-02-16T02:48:15;5.88;;;3.00;;
54937;SDS011;52756;52.826;6.214;2024-02-16T02:50:41;6.25;;;3.17;;
54937;SDS011;52756;52.826;6.214;2024-02-16T02:53:06;5.75;;;3.00;;
54937;SDS011;52756;52.826;6.214;2024-02-16T02:55:32;6.60;;;2.85;;
54937;SDS011;52756;52.826;6.214;2024-02-16T02:57:57;4.00;;;2.80;;
54937;SDS011;52756;52.826;6.214;2024-02-16T03:00:23;7.55;;;3.00;;
54937;SDS011;52756;52.826;6.214;2024-02-16T03:02:50;6.22;;;2.80;;
54937;SDS011;52756;52.826;6.214;2024-02-16T03:05:16;5.88;;;2.85;;
54937;SDS011;52756;52.826;6.214;2024-02-16T03:07:44;5.47;;;3.03;;
54937;SDS011;52756;52.826;6.214;2024-02-16T03:10:09;6.53;;;3.13;;
54937;SDS011;52756;52.826;6.214;2024-02-16T03:12:35;8.55;;;3.20;;
54937;SDS011;52756;52.826;6.214;2024-02-16T03:15:01;5.72;;;3.03;;
54937;SDS011;52756;52.826;6.214;2024-02-16T03:17:26;7.32;;;3.33;;
54937;SDS011;52756;52.826;6.214;2024-02-16T03:19:52;5.90;;;2.88;;
54937;SDS011;52756;52.826;6.214;2024-02-16T03:22:17;8.65;;;3.22;;
54937;SDS011;52756;52.826;6.214;2024-02-16T03:24:43;5.35;;;2.75;;
54937;SDS011;52756;52.826;6.214;2024-02-16T03:27:10;6.38;;;3.20;;
54937;SDS011;52756;52.826;6.214;2024-02-16T03:29:35;5.45;;;3.13;;
54937;SDS011;52756;52.826;6.214;2024-02-16T03:32:01;5.30;;;3.03;;
54937;SDS011;52756;52.826;6.214;2024-02-16T03:34:27;7.78;;;2.63;;
54937;SDS011;52756;52.826;6.214;2024-02-16T03:36:52;6.22;;;3.28;;
54937;SDS011;52756;52.826;6.214;2024-02-16T03:39:19;5.93;;;3.13;;
54937;SDS011;52756;52.826;6.214;2024-02-16T03:41:45;5.10;;;2.80;;
54937;SDS011;52756;52.826;6.214;2024-02-16T03:44:14;5.78;;;2.83;;
54937;SDS011;52756;52.826;6.214;2024-02-16T03:46:41;4.70;;;2.42;;
54937;SDS011;52756;52.826;6.214;2024-02-16T03:49:08;6.10;;;2.67;;
54937;SDS011;52756;52.826;6.214;2024-02-16T03:51:34;5.25;;;2.88;;
54937;SDS011;52756;52.826;6.214;2024-02-16T03:53:59;5.13;;;2.70;;
54937;SDS011;52756;52.826;6.214;2024-02-16T03:56:25;6.43;;;2.80;;
54937;SDS011;52756;52.826;6.214;2024-02-16T03:58:51;5.18;;;2.95;;
54937;SDS011;52756;52.826;6.214;2024-02-16T04:01:17;5.13;;;2.65;;
54937;SDS011;52756;52.826;6.214;2024-02-16T04:03:43;4.22;;;2.80;;
54937;SDS011;52756;52.826;6.214;2024-02-16T04:06:08;5.40;;;3.10;;
54937;SDS011;52756;52.826;6.214;2024-02-16T04:08:34;5.22;;;3.35;;
54937;SDS011;52756;52.826;6.214;2024-02-16T04:11:00;5.90;;;3.05;;
54937;SDS011;52756;52.826;6.214;2024-02-16T04:13:25;5.10;;;3.28;;
54937;SDS011;52756;52.826;6.214;2024-02-16T04:15:51;5.47;;;3.90;;
54937;SDS011;52756;52.826;6.214;2024-02-16T04:18:16;5.45;;;2.72;;
54937;SDS011;52756;52.826;6.214;2024-02-16T04:20:43;5.07;;;3.00;;
54937;SDS011;52756;52.826;6.214;2024-02-16T04:23:09;4.13;;;2.60;;
54937;SDS011;52756;52.826;6.214;2024-02-16T04:25:35;6.20;;;2.80;;
54937;SDS011;52756;52.826;6.214;2024-02-16T04:28:00;5.30;;;3.75;;
54937;SDS011;52756;52.826;6.214;2024-02-16T04:30:26;6.55;;;3.10;;
54937;SDS011;52756;52.826;6.214;2024-02-16T04:32:51;4.85;;;3.13;;
54937;SDS011;52756;52.826;6.214;2024-02-16T04:35:17;5.15;;;2.70;;
54937;SDS011;52756;52.826;6.214;2024-02-16T04:37:44;10.27;;;3.28;;
54937;SDS011;52756;52.826;6.214;2024-02-16T04:40:09;4.80;;;2.50;;
54937;SDS011;52756;52.826;6.214;2024-02-16T04:42:37;7.35;;;3.10;;
54937;SDS011;52756;52.826;6.214;2024-02-16T04:45:03;6.72;;;3.00;;
54937;SDS011;52756;52.826;6.214;2024-02-16T04:47:29;5.53;;;2.67;;
54937;SDS011;52756;52.826;6.214;2024-02-16T04:49:54;6.80;;;3.15;;
54937;SDS011;52756;52.826;6.214;2024-02-16T04:52:20;4.55;;;2.75;;
54937;SDS011;52756;52.826;6.214;2024-02-16T04:54:46;7.45;;;3.75;;
54937;SDS011;52756;52.826;6.214;2024-02-16T04:57:11;4.13;;;2.85;;
54937;SDS011;52756;52.826;6.214;2024-02-16T04:59:37;6.28;;;3.00;;
54937;SDS011;52756;52.826;6.214;2024-02-16T05:02:02;5.10;;;3.33;;
54937;SDS011;52756;52.826;6.214;2024-02-16T05:04:29;6.63;;;2.90;;
54937;SDS011;52756;52.826;6.214;2024-02-16T05:06:54;5.18;;;3.38;;
54937;SDS011;52756;52.826;6.214;2024-02-16T05:09:22;7.45;;;3.40;;
54937;SDS011;52756;52.826;6.214;2024-02-16T05:11:49;5.18;;;2.40;;
54937;SDS011;52756;52.826;6.214;2024-02-16T05:14:16;4.70;;;2.90;;
54937;SDS011;52756;52.826;6.214;2024-02-16T05:16:45;6.03;;;3.10;;
54937;SDS011;52756;52.826;6.214;2024-02-16T05:19:11;7.53;;;3.60;;
54937;SDS011;52756;52.826;6.214;2024-02-16T05:21:37;5.13;;;2.80;;
54937;SDS011;52756;52.826;6.214;2024-02-16T05:24:03;6.10;;;3.47;;
54937;SDS011;52756;52.826;6.214;2024-02-16T05:26:29;5.63;;;3.33;;
54937;SDS011;52756;52.826;6.214;2024-02-16T05:28:54;4.93;;;2.72;;
54937;SDS011;52756;52.826;6.214;2024-02-16T05:31:20;6.68;;;2.97;;
54937;SDS011;52756;52.826;6.214;2024-02-16T05:33:46;8.18;;;3.65;;
54937;SDS011;52756;52.826;6.214;2024-02-16T05:36:16;3.80;;;2.50;;
54937;SDS011;52756;52.826;6.214;2024-02-16T05:38:48;3.47;;;2.97;;
54937;SDS011;52756;52.826;6.214;2024-02-16T05:41:15;6.15;;;3.05;;
54937;SDS011;52756;52.826;6.214;2024-02-16T05:43:43;7.25;;;3.00;;
54937;SDS011;52756;52.826;6.214;2024-02-16T05:46:15;6.40;;;3.50;;
54937;SDS011;52756;52.826;6.214;2024-02-16T05:48:41;5.32;;;3.35;;
54937;SDS011;52756;52.826;6.214;2024-02-16T05:51:07;6.00;;;3.13;;
54937;SDS011;52756;52.826;6.214;2024-02-16T05:53:33;5.07;;;2.65;;
54937;SDS011;52756;52.826;6.214;2024-02-16T05:56:00;5.10;;;3.42;;
54937;SDS011;52756;52.826;6.214;2024-02-16T05:58:26;6.25;;;2.85;;
54937;SDS011;52756;52.826;6.214;2024-02-16T06:00:53;6.07;;;3.05;;
54937;SDS011;52756;52.826;6.214;2024-02-16T06:03:19;6.95;;;3.00;;
54937;SDS011;52756;52.826;6.214;2024-02-16T06:05:45;5.13;;;3.03;;
54937;SDS011;52756;52.826;6.214;2024-02-16T06:08:11;5.38;;;3.00;;
54937;SDS011;52756;52.826;6.214;2024-02-16T06:10:37;6.63;;;2.70;;
54937;SDS011;52756;52.826;6.214;2024-02-16T06:13:03;5.53;;;3.00;;
54937;SDS011;52756;52.826;6.214;2024-02-16T06:15:28;4.35;;;2.63;;
54937;SDS011;52756;52.826;6.214;2024-02-16T06:17:55;5.68;;;3.10;;
54937;SDS011;52756;52.826;6.214;2024-02-16T06:20:21;4.47;;;2.90;;
54937;SDS011;52756;52.826;6.214;2024-02-16T06:22:47;5.28;;;2.60;;
54937;SDS011;52756;52.826;6.214;2024-02-16T06:25:13;5.30;;;3.00;;
54937;SDS011;52756;52.826;6.214;2024-02-16T06:27:40;3.97;;;2.80;;
54937;SDS011;52756;52.826;6.214;2024-02-16T06:30:06;5.03;;;2.75;;
54937;SDS011;52756;52.826;6.214;2024-02-16T06:32:35;14.55;;;3.85;;
54937;SDS011;52756;52.826;6.214;2024-02-16T06:35:01;5.88;;;2.92;;
54937;SDS011;52756;52.826;6.214;2024-02-16T06:37:26;6.18;;;2.75;;
54937;SDS011;52756;52.826;6.214;2024-02-16T06:39:52;5.82;;;3.08;;
54937;SDS011;52756;52.826;6.214;2024-02-16T06:42:17;4.63;;;3.15;;
54937;SDS011;52756;52.826;6.214;2024-02-16T06:44:43;6.13;;;3.47;;
54937;SDS011;52756;52.826;6.214;2024-02-16T06:47:09;6.38;;;2.83;;
54937;SDS011;52756;52.826;6.214;2024-02-16T06:49:34;5.78;;;2.80;;
54937;SDS011;52756;52.826;6.214;2024-02-16T06:52:00;5.38;;;2.88;;
54937;SDS011;52756;52.826;6.214;2024-02-16T06:54:26;6.03;;;3.20;;
54937;SDS011;52756;52.826;6.214;2024-02-16T06:56:51;4.65;;;2.85;;
54937;SDS011;52756;52.826;6.214;2024-02-16T06:59:17;5.22;;;3.17;;
54937;SDS011;52756;52.826;6.214;2024-02-16T07:01:43;4.88;;;2.97;;
54937;SDS011;52756;52.826;6.214;2024-02-16T07:04:08;4.88;;;3.05;;
54937;SDS011;52756;52.826;6.214;2024-02-16T07:06:34;7.32;;;3.53;;
54937;SDS011;52756;52.826;6.214;2024-02-16T07:09:00;5.47;;;3.38;;
54937;SDS011;52756;52.826;6.214;2024-02-16T07:11:27;5.63;;;3.00;;
54937;SDS011;52756;52.826;6.214;2024-02-16T07:13:53;5.85;;;3.35;;
54937;SDS011;52756;52.826;6.214;2024-02-16T07:16:18;7.10;;;3.10;;
54937;SDS011;52756;52.826;6.214;2024-02-16T07:18:44;4.95;;;3.03;;
54937;SDS011;52756;52.826;6.214;2024-02-16T07:21:10;6.55;;;3.10;;
54937;SDS011;52756;52.826;6.214;2024-02-16T07:23:36;6.30;;;3.20;;
54937;SDS011;52756;52.826;6.214;2024-02-16T07:26:03;6.57;;;3.08;;
54937;SDS011;52756;52.826;6.214;2024-02-16T07:28:29;6.13;;;3.30;;
54937;SDS011;52756;52.826;6.214;2024-02-16T07:30:54;6.85;;;4.32;;
54937;SDS011;52756;52.826;6.214;2024-02-16T07:33:20;5.70;;;2.95;;
54937;SDS011;52756;52.826;6.214;2024-02-16T07:35:46;6.47;;;3.30;;
54937;SDS011;52756;52.826;6.214;2024-02-16T07:38:12;5.00;;;3.38;;
54937;SDS011;52756;52.826;6.214;2024-02-16T07:40:38;6.50;;;3.50;;
54937;SDS011;52756;52.826;6.214;2024-02-16T07:43:04;5.72;;;3.40;;
54937;SDS011;52756;52.826;6.214;2024-02-16T07:45:30;7.05;;;4.10;;
54937;SDS011;52756;52.826;6.214;2024-02-16T07:47:56;5.40;;;3.22;;
54937;SDS011;52756;52.826;6.214;2024-02-16T07:50:22;6.03;;;3.55;;
54937;SDS011;52756;52.826;6.214;2024-02-16T07:52:48;6.45;;;3.38;;
54937;SDS011;52756;52.826;6.214;2024-02-16T07:55:15;8.13;;;3.28;;
54937;SDS011;52756;52.826;6.214;2024-02-16T07:57:43;5.72;;;3.15;;
54937;SDS011;52756;52.826;6.214;2024-02-16T08:00:10;6.55;;;3.40;;
54937;SDS011;52756;52.826;6.214;2024-02-16T08:02:36;5.35;;;3.47;;
54937;SDS011;52756;52.826;6.214;2024-02-16T08:05:02;5.82;;;3.75;;
54937;SDS011;52756;52.826;6.214;2024-02-16T08:07:27;5.32;;;3.25;;
54937;SDS011;52756;52.826;6.214;2024-02-16T08:09:53;9.93;;;4.18;;
54937;SDS011;52756;52.826;6.214;2024-02-16T08:12:19;7.93;;;3.40;;
54937;SDS011;52756;52.826;6.214;2024-02-16T08:14:46;6.07;;;3.63;;
54937;SDS011;52756;52.826;6.214;2024-02-16T08:17:11;8.23;;;4.20;;
54937;SDS011;52756;52.826;6.214;2024-02-16T08:19:37;7.65;;;3.55;;
54937;SDS011;52756;52.826;6.214;2024-02-16T08:22:04;6.97;;;3.53;;
54937;SDS011;52756;52.826;6.214;2024-02-16T08:24:32;4.13;;;3.13;;
54937;SDS011;52756;52.826;6.214;2024-02-16T08:26:58;6.43;;;3.30;;
54937;SDS011;52756;52.826;6.214;2024-02-16T08:29:24;6.05;;;3.80;;
54937;SDS011;52756;52.826;6.214;2024-02-16T08:31:54;8.98;;;4.25;;
54937;SDS011;52756;52.826;6.214;2024-02-16T08:34:20;7.78;;;3.80;;
54937;SDS011;52756;52.826;6.214;2024-02-16T08:36:49;7.70;;;4.10;;
54937;SDS011;52756;52.826;6.214;2024-02-16T08:39:16;7.82;;;4.05;;
54937;SDS011;52756;52.826;6.214;2024-02-16T08:41:42;6.78;;;3.95;;
54937;SDS011;52756;52.826;6.214;2024-02-16T08:44:13;5.20;;;3.38;;
54937;SDS011;52756;52.826;6.214;2024-02-16T08:46:39;7.50;;;3.95;;
54937;SDS011;52756;52.826;6.214;2024-02-16T08:49:05;6.05;;;3.78;;
54937;SDS011;52756;52.826;6.214;2024-02-16T08:51:31;6.63;;;4.18;;
54937;SDS011;52756;52.826;6.214;2024-02-16T08:53:58;5.82;;;4.07;;
54937;SDS011;52756;52.826;6.214;2024-02-16T08:56:24;7.38;;;4.43;;
54937;SDS011;52756;52.826;6.214;2024-02-16T08:58:50;9.48;;;4.53;;
54937;SDS011;52756;52.826;6.214;2024-02-16T09:01:16;6.82;;;4.22;;
54937;SDS011;52756;52.826;6.214;2024-02-16T09:03:42;6.43;;;4.13;;
54937;SDS011;52756;52.826;6.214;2024-02-16T09:06:08;8.80;;;4.18;;
54937;SDS011;52756;52.826;6.214;2024-02-16T09:08:33;7.35;;;4.40;;
54937;SDS011;52756;52.826;6.214;2024-02-16T09:11:00;7.72;;;4.28;;
54937;SDS011;52756;52.826;6.214;2024-02-16T09:13:36;7.88;;;5.13;;
54937;SDS011;52756;52.826;6.214;2024-02-16T09:16:04;7.25;;;3.97;;
54937;SDS011;52756;52.826;6.214;2024-02-16T09:18:30;6.18;;;4.10;;
54937;SDS011;52756;52.826;6.214;2024-02-16T09:20:55;8.23;;;4.85;;
54937;SDS011;52756;52.826;6.214;2024-02-16T09:23:21;7.82;;;4.60;;
54937;SDS011;52756;52.826;6.214;2024-02-16T09:25:46;5.65;;;3.97;;
54937;SDS011;52756;52.826;6.214;2024-02-16T09:28:13;10.60;;;4.65;;
54937;SDS011;52756;52.826;6.214;2024-02-16T09:30:39;9.20;;;4.72;;
54937;SDS011;52756;52.826;6.214;2024-02-16T09:33:04;9.18;;;5.05;;
54937;SDS011;52756;52.826;6.214;2024-02-16T09:35:32;7.57;;;5.22;;
54937;SDS011;52756;52.826;6.214;2024-02-16T09:37:58;7.32;;;4.30;;
54937;SDS011;52756;52.826;6.214;2024-02-16T09:40:23;7.15;;;4.82;;
54937;SDS011;52756;52.826;6.214;2024-02-16T09:42:49;8.13;;;5.05;;
54937;SDS011;52756;52.826;6.214;2024-02-16T09:45:15;9.07;;;4.72;;
54937;SDS011;52756;52.826;6.214;2024-02-16T09:47:45;7.70;;;4.78;;
54937;SDS011;52756;52.826;6.214;2024-02-16T09:50:12;6.03;;;4.78;;
54937;SDS011;52756;52.826;6.214;2024-02-16T09:52:38;7.60;;;4.85;;
54937;SDS011;52756;52.826;6.214;2024-02-16T09:55:04;9.70;;;5.13;;
54937;SDS011;52756;52.826;6.214;2024-02-16T09:57:33;6.97;;;5.20;;
54937;SDS011;52756;52.826;6.214;2024-02-16T09:59:59;7.68;;;5.10;;
54937;SDS011;52756;52.826;6.214;2024-02-16T10:02:24;7.63;;;5.55;;
54937;SDS011;52756;52.826;6.214;2024-02-16T10:04:50;7.05;;;4.85;;
54937;SDS011;52756;52.826;6.214;2024-02-16T10:07:15;10.70;;;5.20;;
54937;SDS011;52756;52.826;6.214;2024-02-16T10:09:41;9.32;;;5.80;;
54937;SDS011;52756;52.826;6.214;2024-02-16T10:12:07;8.00;;;5.78;;
54937;SDS011;52756;52.826;6.214;2024-02-16T10:14:32;7.07;;;5.20;;
54937;SDS011;52756;52.826;6.214;2024-02-16T10:16:59;7.18;;;5.63;;
54937;SDS011;52756;52.826;6.214;2024-02-16T10:19:25;11.68;;;5.90;;
54937;SDS011;52756;52.826;6.214;2024-02-16T10:21:51;9.90;;;5.57;;
54937;SDS011;52756;52.826;6.214;2024-02-16T10:24:20;7.88;;;5.38;;
54937;SDS011;52756;52.826;6.214;2024-02-16T10:26:46;8.07;;;5.82;;
54937;SDS011;52756;52.826;6.214;2024-02-16T10:29:14;7.88;;;5.90;;
54937;SDS011;52756;52.826;6.214;2024-02-16T10:31:45;8.88;;;6.72;;
54937;SDS011;52756;52.826;6.214;2024-02-16T10:34:10;9.68;;;6.15;;
54937;SDS011;52756;52.826;6.214;2024-02-16T10:36:36;9.45;;;6.57;;
54937;SDS011;52756;52.826;6.214;2024-02-16T10:39:03;10.95;;;7.00;;
54937;SDS011;52756;52.826;6.214;2024-02-16T10:41:33;10.10;;;6.45;;
54937;SDS011;52756;52.826;6.214;2024-02-16T10:44:09;10.77;;;7.20;;
54937;SDS011;52756;52.826;6.214;2024-02-16T10:46:35;9.13;;;7.55;;
54937;SDS011;52756;52.826;6.214;2024-02-16T10:49:01;12.13;;;6.85;;
54937;SDS011;52756;52.826;6.214;2024-02-16T10:51:38;10.00;;;7.63;;
54937;SDS011;52756;52.826;6.214;2024-02-16T10:54:07;13.25;;;8.00;;
54937;SDS011;52756;52.826;6.214;2024-02-16T10:56:34;11.48;;;8.63;;
54937;SDS011;52756;52.826;6.214;2024-02-16T10:59:01;13.68;;;7.43;;
54937;SDS011;52756;52.826;6.214;2024-02-16T11:01:33;10.70;;;8.35;;
54937;SDS011;52756;52.826;6.214;2024-02-16T11:04:03;12.75;;;8.50;;
54937;SDS011;52756;52.826;6.214;2024-02-16T11:06:29;15.38;;;8.80;;
54937;SDS011;52756;52.826;6.214;2024-02-16T11:09:01;11.82;;;8.40;;
54937;SDS011;52756;52.826;6.214;2024-02-16T11:11:32;16.80;;;8.18;;
54937;SDS011;52756;52.826;6.214;2024-02-16T11:14:01;14.68;;;9.07;;
54937;SDS011;52756;52.826;6.214;2024-02-16T11:16:27;12.63;;;9.45;;
54937;SDS011;52756;52.826;6.214;2024-02-16T11:18:53;17.33;;;9.05;;
54937;SDS011;52756;52.826;6.214;2024-02-16T11:21:19;16.85;;;8.88;;
54937;SDS011;52756;52.826;6.214;2024-02-16T11:23:44;15.90;;;9.93;;
54937;SDS011;52756;52.826;6.214;2024-02-16T11:26:10;14.07;;;9.95;;
54937;SDS011;52756;52.826;6.214;2024-02-16T11:28:38;16.80;;;9.55;;
54937;SDS011;52756;52.826;6.214;2024-02-16T11:31:06;16.08;;;9.73;;
54937;SDS011;52756;52.826;6.214;2024-02-16T11:33:32;15.10;;;10.25;;
54937;SDS011;52756;52.826;6.214;2024-02-16T11:36:03;20.23;;;11.32;;
54937;SDS011;52756;52.826;6.214;2024-02-16T11:38:32;15.25;;;9.82;;
54937;SDS011;52756;52.826;6.214;2024-02-16T11:40:59;15.52;;;9.77;;
54937;SDS011;52756;52.826;6.214;2024-02-16T11:43:25;14.95;;;10.18;;
54937;SDS011;52756;52.826;6.214;2024-02-16T11:45:51;17.50;;;11.48;;
54937;SDS011;52756;52.826;6.214;2024-02-16T11:48:21;15.65;;;9.32;;
54937;SDS011;52756;52.826;6.214;2024-02-16T11:50:49;17.20;;;9.85;;
54937;SDS011;52756;52.826;6.214;2024-02-16T11:53:16;19.20;;;10.38;;
54937;SDS011;52756;52.826;6.214;2024-02-16T11:55:47;12.30;;;8.32;;
54937;SDS011;52756;52.826;6.214;2024-02-16T11:58:16;12.65;;;7.82;;
54937;SDS011;52756;52.826;6.214;2024-02-16T12:00:46;10.55;;;7.18;;
54937;SDS011;52756;52.826;6.214;2024-02-16T12:03:22;10.57;;;7.35;;
54937;SDS011;52756;52.826;6.214;2024-02-16T12:05:53;10.48;;;6.53;;
54937;SDS011;52756;52.826;6.214;2024-02-16T12:08:20;10.63;;;7.75;;
54937;SDS011;52756;52.826;6.214;2024-02-16T12:10:47;10.45;;;6.50;;
54937;SDS011;52756;52.826;6.214;2024-02-16T12:13:15;10.52;;;7.43;;
54937;SDS011;52756;52.826;6.214;2024-02-16T12:15:43;10.35;;;6.40;;
54937;SDS011;52756;52.826;6.214;2024-02-16T12:18:10;10.13;;;6.55;;
54937;SDS011;52756;52.826;6.214;2024-02-16T12:20:35;10.05;;;6.63;;
54937;SDS011;52756;52.826;6.214;2024-02-16T12:23:10;11.10;;;6.20;;
54937;SDS011;52756;52.826;6.214;2024-02-16T12:25:36;10.98;;;6.97;;
54937;SDS011;52756;52.826;6.214;2024-02-16T12:28:02;9.77;;;6.68;;
54937;SDS011;52756;52.826;6.214;2024-02-16T12:30:28;8.55;;;5.90;;
54937;SDS011;52756;52.826;6.214;2024-02-16T12:32:53;9.95;;;6.60;;
54937;SDS011;52756;52.826;6.214;2024-02-16T12:35:19;9.32;;;5.97;;
54937;SDS011;52756;52.826;6.214;2024-02-16T12:37:45;11.18;;;6.20;;
54937;SDS011;52756;52.826;6.214;2024-02-16T12:40:10;10.15;;;5.85;;
54937;SDS011;52756;52.826;6.214;2024-02-16T12:42:36;11.13;;;6.88;;
54937;SDS011;52756;52.826;6.214;2024-02-16T12:45:03;8.82;;;6.10;;
54937;SDS011;52756;52.826;6.214;2024-02-16T12:47:29;11.52;;;6.63;;
54937;SDS011;52756;52.826;6.214;2024-02-16T12:49:55;10.48;;;6.22;;
54937;SDS011;52756;52.826;6.214;2024-02-16T12:52:22;12.55;;;6.78;;
54937;SDS011;52756;52.826;6.214;2024-02-16T12:54:52;9.85;;;6.13;;
54937;SDS011;52756;52.826;6.214;2024-02-16T12:57:17;10.23;;;6.20;;
54937;SDS011;52756;52.826;6.214;2024-02-16T12:59:43;8.77;;;5.50;;
54937;SDS011;52756;52.826;6.214;2024-02-16T13:02:09;9.50;;;5.75;;
54937;SDS011;52756;52.826;6.214;2024-02-16T13:04:35;9.23;;;5.38;;
54937;SDS011;52756;52.826;6.214;2024-02-16T13:07:00;7.93;;;5.28;;
54937;SDS011;52756;52.826;6.214;2024-02-16T13:09:26;7.30;;;5.30;;
54937;SDS011;52756;52.826;6.214;2024-02-16T13:11:53;8.07;;;5.05;;
54937;SDS011;52756;52.826;6.214;2024-02-16T13:14:19;5.90;;;4.20;;
54937;SDS011;52756;52.826;6.214;2024-02-16T13:16:46;7.90;;;4.32;;
54937;SDS011;52756;52.826;6.214;2024-02-16T13:19:12;7.65;;;4.03;;
54937;SDS011;52756;52.826;6.214;2024-02-16T13:21:38;5.15;;;3.45;;
54937;SDS011;52756;52.826;6.214;2024-02-16T13:24:04;6.25;;;3.67;;
54937;SDS011;52756;52.826;6.214;2024-02-16T13:26:30;4.30;;;3.53;;
54937;SDS011;52756;52.826;6.214;2024-02-16T13:28:56;3.72;;;2.80;;
54937;SDS011;52756;52.826;6.214;2024-02-16T13:31:22;3.63;;;2.50;;
54937;SDS011;52756;52.826;6.214;2024-02-16T13:33:49;3.55;;;2.80;;
54937;SDS011;52756;52.826;6.214;2024-02-16T13:36:14;5.85;;;2.72;;
54937;SDS011;52756;52.826;6.214;2024-02-16T13:38:40;3.53;;;2.58;;
54937;SDS011;52756;52.826;6.214;2024-02-16T13:41:06;5.18;;;3.60;;
54937;SDS011;52756;52.826;6.214;2024-02-16T13:43:31;5.25;;;2.53;;
54937;SDS011;52756;52.826;6.214;2024-02-16T13:45:57;3.45;;;2.65;;
54937;SDS011;52756;52.826;6.214;2024-02-16T13:48:23;3.88;;;2.53;;
54937;SDS011;52756;52.826;6.214;2024-02-16T13:50:49;3.58;;;2.25;;
54937;SDS011;52756;52.826;6.214;2024-02-16T13:53:15;4.13;;;2.58;;
54937;SDS011;52756;52.826;6.214;2024-02-16T13:55:42;3.67;;;2.42;;
54937;SDS011;52756;52.826;6.214;2024-02-16T13:58:09;3.97;;;2.90;;
54937;SDS011;52756;52.826;6.214;2024-02-16T14:00:36;4.00;;;2.45;;
54937;SDS011;52756;52.826;6.214;2024-02-16T14:03:02;3.47;;;2.85;;
54937;SDS011;52756;52.826;6.214;2024-02-16T14:05:29;4.93;;;2.53;;
54937;SDS011;52756;52.826;6.214;2024-02-16T14:07:55;4.60;;;3.00;;
54937;SDS011;52756;52.826;6.214;2024-02-16T14:10:21;10.95;;;9.68;;
54937;SDS011;52756;52.826;6.214;2024-02-16T14:12:47;10.05;;;5.30;;
54937;SDS011;52756;52.826;6.214;2024-02-16T14:15:12;5.15;;;3.35;;
54937;SDS011;52756;52.826;6.214;2024-02-16T14:17:43;6.22;;;3.85;;
54937;SDS011;52756;52.826;6.214;2024-02-16T14:20:09;7.40;;;3.70;;
54937;SDS011;52756;52.826;6.214;2024-02-16T14:22:35;5.75;;;4.03;;
54937;SDS011;52756;52.826;6.214;2024-02-16T14:25:01;4.90;;;3.95;;
54937;SDS011;52756;52.826;6.214;2024-02-16T14:27:28;6.47;;;4.47;;
54937;SDS011;52756;52.826;6.214;2024-02-16T14:29:54;5.65;;;3.92;;
54937;SDS011;52756;52.826;6.214;2024-02-16T14:32:20;5.13;;;3.67;;
54937;SDS011;52756;52.826;6.214;2024-02-16T14:34:46;4.97;;;3.67;;
54937;SDS011;52756;52.826;6.214;2024-02-16T14:37:11;4.95;;;3.40;;
54937;SDS011;52756;52.826;6.214;2024-02-16T14:39:37;5.40;;;3.80;;